sensor_id;sensor_type;location;lat;lon;timestamp;P1;durP1;ratioP1;P2;durP2;ratioP2
64560;SDS011;50960;46.838;16.838;2023-06-14T14:55:35;5.75;;;3.88;;
64560;SDS011;50960;46.838;16.838;2023-06-14T14:58:03;3.47;;;3.17;;
64560;SDS011;50960;46.838;16.838;2023-06-14T15:00:29;4.72;;;3.60;;
64560;SDS011;50960;46.838;16.838;2023-06-14T15:02:55;4.10;;;3.35;;
64560;SDS011;50960;46.838;16.838;2023-06-14T15:05:22;4.20;;;3.70;;
64560;SDS011;50960;46.838;16.838;2023-06-14T15:07:48;7.13;;;3.67;;
64560;SDS011;50960;46.838;16.838;2023-06-14T15:10:14;4.68;;;3.08;;
64560;SDS011;50960;46.838;16.838;2023-06-14T15:12:41;4.07;;;3.40;;
64560;SDS011;50960;46.838;16.838;2023-06-14T15:15:07;4.10;;;3.65;;
64560;SDS011;50960;46.838;16.838;2023-06-14T15:17:34;3.40;;;3.10;;
64560;SDS011;50960;46.838;16.838;2023-06-14T15:20:01;3.58;;;3.28;;
64560;SDS011;50960;46.838;16.838;2023-06-14T15:22:28;3.15;;;2.90;;
64560;SDS011;50960;46.838;16.838;2023-06-14T15:24:54;4.75;;;3.33;;
64560;SDS011;50960;46.838;16.838;2023-06-14T15:27:21;3.65;;;3.20;;
64560;SDS011;50960;46.838;16.838;2023-06-14T15:29:47;6.32;;;3.40;;
64560;SDS011;50960;46.838;16.838;2023-06-14T15:32:15;4.28;;;3.42;;
64560;SDS011;50960;46.838;16.838;2023-06-14T15:34:43;4.22;;;3.13;;
64560;SDS011;50960;46.838;16.838;2023-06-14T15:37:09;4.32;;;3.30;;
64560;SDS011;50960;46.838;16.838;2023-06-14T15:39:36;3.90;;;3.13;;
64560;SDS011;50960;46.838;16.838;2023-06-14T15:42:03;3.30;;;3.00;;
64560;SDS011;50960;46.838;16.838;2023-06-14T15:44:31;3.90;;;3.47;;
64560;SDS011;50960;46.838;16.838;2023-06-14T15:46:57;3.60;;;3.30;;
64560;SDS011;50960;46.838;16.838;2023-06-14T15:49:24;4.20;;;3.00;;
64560;SDS011;50960;46.838;16.838;2023-06-14T15:51:51;4.28;;;3.30;;
64560;SDS011;50960;46.838;16.838;2023-06-14T15:54:19;4.25;;;3.03;;
64560;SDS011;50960;46.838;16.838;2023-06-14T15:56:47;3.03;;;2.78;;
64560;SDS011;50960;46.838;16.838;2023-06-14T15:59:16;5.03;;;3.08;;
64560;SDS011;50960;46.838;16.838;2023-06-14T16:01:43;3.58;;;3.08;;
64560;SDS011;50960;46.838;16.838;2023-06-14T16:04:09;3.92;;;2.80;;
64560;SDS011;50960;46.838;16.838;2023-06-14T16:06:37;4.35;;;3.08;;
64560;SDS011;50960;46.838;16.838;2023-06-14T16:09:04;3.10;;;2.80;;
64560;SDS011;50960;46.838;16.838;2023-06-14T16:11:31;3.65;;;3.35;;
64560;SDS011;50960;46.838;16.838;2023-06-14T16:13:57;3.65;;;3.15;;
64560;SDS011;50960;46.838;16.838;2023-06-14T16:16:24;3.40;;;2.88;;
64560;SDS011;50960;46.838;16.838;2023-06-14T16:18:50;3.53;;;3.22;;
64560;SDS011;50960;46.838;16.838;2023-06-14T16:21:16;3.40;;;3.10;;
64560;SDS011;50960;46.838;16.838;2023-06-14T16:23:43;3.10;;;2.80;;
64560;SDS011;50960;46.838;16.838;2023-06-14T16:26:09;3.55;;;3.25;;
64560;SDS011;50960;46.838;16.838;2023-06-14T16:28:38;3.67;;;3.15;;
64560;SDS011;50960;46.838;16.838;2023-06-14T16:31:08;3.40;;;2.65;;
64560;SDS011;50960;46.838;16.838;2023-06-14T16:33:36;3.30;;;3.00;;
64560;SDS011;50960;46.838;16.838;2023-06-14T16:36:03;3.17;;;2.78;;
64560;SDS011;50960;46.838;16.838;2023-06-14T16:38:29;3.70;;;3.00;;
64560;SDS011;50960;46.838;16.838;2023-06-14T16:40:55;3.45;;;3.15;;
64560;SDS011;50960;46.838;16.838;2023-06-14T16:43:22;2.90;;;2.60;;
64560;SDS011;50960;46.838;16.838;2023-06-14T16:45:48;3.30;;;3.00;;
64560;SDS011;50960;46.838;16.838;2023-06-14T16:48:15;2.83;;;2.63;;
64560;SDS011;50960;46.838;16.838;2023-06-14T16:50:41;3.78;;;3.05;;
64560;SDS011;50960;46.838;16.838;2023-06-14T16:53:07;3.72;;;2.83;;
64560;SDS011;50960;46.838;16.838;2023-06-14T16:55:34;3.25;;;3.05;;
64560;SDS011;50960;46.838;16.838;2023-06-14T16:58:01;2.78;;;2.60;;
64560;SDS011;50960;46.838;16.838;2023-06-14T17:00:28;3.53;;;2.90;;
64560;SDS011;50960;46.838;16.838;2023-06-14T17:02:54;4.20;;;2.90;;
64560;SDS011;50960;46.838;16.838;2023-06-14T17:05:21;3.40;;;3.10;;
64560;SDS011;50960;46.838;16.838;2023-06-14T17:07:48;2.78;;;2.58;;
64560;SDS011;50960;46.838;16.838;2023-06-14T17:10:14;4.15;;;3.15;;
64560;SDS011;50960;46.838;16.838;2023-06-14T17:12:40;3.22;;;3.03;;
64560;SDS011;50960;46.838;16.838;2023-06-14T17:15:07;3.40;;;3.10;;
64560;SDS011;50960;46.838;16.838;2023-06-14T17:17:33;3.30;;;3.00;;
64560;SDS011;50960;46.838;16.838;2023-06-14T17:20:00;2.97;;;2.78;;
64560;SDS011;50960;46.838;16.838;2023-06-14T17:22:26;3.67;;;2.97;;
64560;SDS011;50960;46.838;16.838;2023-06-14T17:24:54;3.47;;;3.15;;
64560;SDS011;50960;46.838;16.838;2023-06-14T17:27:21;3.15;;;2.85;;
64560;SDS011;50960;46.838;16.838;2023-06-14T17:29:47;2.97;;;2.72;;
64560;SDS011;50960;46.838;16.838;2023-06-14T17:32:14;3.10;;;2.80;;
64560;SDS011;50960;46.838;16.838;2023-06-14T17:34:40;4.43;;;3.08;;
64560;SDS011;50960;46.838;16.838;2023-06-14T17:37:06;3.45;;;3.15;;
64560;SDS011;50960;46.838;16.838;2023-06-14T17:39:32;3.67;;;3.17;;
64560;SDS011;50960;46.838;16.838;2023-06-14T17:42:00;3.50;;;3.20;;
64560;SDS011;50960;46.838;16.838;2023-06-14T17:44:26;3.33;;;3.03;;
64560;SDS011;50960;46.838;16.838;2023-06-14T17:46:53;4.10;;;3.13;;
64560;SDS011;50960;46.838;16.838;2023-06-14T17:49:19;3.30;;;3.00;;
64560;SDS011;50960;46.838;16.838;2023-06-14T17:51:49;3.20;;;3.00;;
64560;SDS011;50960;46.838;16.838;2023-06-14T17:54:15;3.58;;;3.28;;
64560;SDS011;50960;46.838;16.838;2023-06-14T17:56:43;3.15;;;2.85;;
64560;SDS011;50960;46.838;16.838;2023-06-14T17:59:09;4.90;;;2.97;;
64560;SDS011;50960;46.838;16.838;2023-06-14T18:01:35;3.03;;;2.83;;
64560;SDS011;50960;46.838;16.838;2023-06-14T18:04:02;3.22;;;2.92;;
64560;SDS011;50960;46.838;16.838;2023-06-14T18:06:28;3.55;;;3.10;;
64560;SDS011;50960;46.838;16.838;2023-06-14T18:08:54;3.60;;;3.30;;
64560;SDS011;50960;46.838;16.838;2023-06-14T18:11:21;3.10;;;2.83;;
64560;SDS011;50960;46.838;16.838;2023-06-14T18:13:49;3.17;;;2.97;;
64560;SDS011;50960;46.838;16.838;2023-06-14T18:16:17;3.17;;;2.88;;
64560;SDS011;50960;46.838;16.838;2023-06-14T18:18:45;3.45;;;3.05;;
64560;SDS011;50960;46.838;16.838;2023-06-14T18:21:11;4.00;;;2.90;;
64560;SDS011;50960;46.838;16.838;2023-06-14T18:23:38;3.42;;;2.88;;
64560;SDS011;50960;46.838;16.838;2023-06-14T18:26:04;3.42;;;3.13;;
64560;SDS011;50960;46.838;16.838;2023-06-14T18:28:30;3.40;;;3.10;;
64560;SDS011;50960;46.838;16.838;2023-06-14T18:30:56;3.40;;;3.10;;
64560;SDS011;50960;46.838;16.838;2023-06-14T18:33:24;3.10;;;2.83;;
64560;SDS011;50960;46.838;16.838;2023-06-14T18:35:50;4.07;;;3.17;;
64560;SDS011;50960;46.838;16.838;2023-06-14T18:38:16;3.60;;;3.30;;
64560;SDS011;50960;46.838;16.838;2023-06-14T18:40:43;3.58;;;3.20;;
64560;SDS011;50960;46.838;16.838;2023-06-14T18:43:09;5.30;;;3.30;;
64560;SDS011;50960;46.838;16.838;2023-06-14T18:45:37;3.92;;;3.53;;
64560;SDS011;50960;46.838;16.838;2023-06-14T18:48:03;3.42;;;3.13;;
64560;SDS011;50960;46.838;16.838;2023-06-14T18:50:30;4.63;;;3.40;;
64560;SDS011;50960;46.838;16.838;2023-06-14T18:52:56;3.42;;;3.13;;
64560;SDS011;50960;46.838;16.838;2023-06-14T18:55:22;3.25;;;3.03;;
64560;SDS011;50960;46.838;16.838;2023-06-14T18:57:49;4.28;;;3.45;;
64560;SDS011;50960;46.838;16.838;2023-06-14T19:00:15;3.45;;;3.13;;
64560;SDS011;50960;46.838;16.838;2023-06-14T19:02:42;4.07;;;3.67;;
64560;SDS011;50960;46.838;16.838;2023-06-14T19:05:08;3.88;;;3.55;;
64560;SDS011;50960;46.838;16.838;2023-06-14T19:07:34;3.75;;;3.38;;
64560;SDS011;50960;46.838;16.838;2023-06-14T19:10:01;3.97;;;3.58;;
64560;SDS011;50960;46.838;16.838;2023-06-14T19:12:27;5.72;;;3.50;;
64560;SDS011;50960;46.838;16.838;2023-06-14T19:14:53;3.80;;;3.38;;
64560;SDS011;50960;46.838;16.838;2023-06-14T19:17:20;4.10;;;3.60;;
64560;SDS011;50960;46.838;16.838;2023-06-14T19:19:46;6.55;;;3.65;;
64560;SDS011;50960;46.838;16.838;2023-06-14T19:22:13;3.90;;;3.60;;
64560;SDS011;50960;46.838;16.838;2023-06-14T19:24:40;4.47;;;4.10;;
64560;SDS011;50960;46.838;16.838;2023-06-14T19:27:06;5.18;;;4.28;;
64560;SDS011;50960;46.838;16.838;2023-06-14T19:29:32;4.53;;;4.03;;
64560;SDS011;50960;46.838;16.838;2023-06-14T19:31:59;3.97;;;3.67;;
64560;SDS011;50960;46.838;16.838;2023-06-14T19:34:25;4.50;;;3.60;;
64560;SDS011;50960;46.838;16.838;2023-06-14T19:36:51;4.80;;;3.97;;
64560;SDS011;50960;46.838;16.838;2023-06-14T19:39:18;4.45;;;3.80;;
64560;SDS011;50960;46.838;16.838;2023-06-14T19:41:44;6.43;;;4.28;;
64560;SDS011;50960;46.838;16.838;2023-06-14T19:44:10;4.18;;;3.78;;
64560;SDS011;50960;46.838;16.838;2023-06-14T19:46:37;6.22;;;4.03;;
64560;SDS011;50960;46.838;16.838;2023-06-14T19:49:03;4.10;;;3.80;;
64560;SDS011;50960;46.838;16.838;2023-06-14T19:51:30;5.43;;;3.75;;
64560;SDS011;50960;46.838;16.838;2023-06-14T19:53:57;5.13;;;3.88;;
64560;SDS011;50960;46.838;16.838;2023-06-14T19:56:23;4.03;;;3.72;;
64560;SDS011;50960;46.838;16.838;2023-06-14T19:58:50;4.13;;;3.67;;
64560;SDS011;50960;46.838;16.838;2023-06-14T20:01:16;5.47;;;3.55;;
64560;SDS011;50960;46.838;16.838;2023-06-14T20:03:42;3.88;;;3.58;;
64560;SDS011;50960;46.838;16.838;2023-06-14T20:06:09;3.95;;;3.60;;
64560;SDS011;50960;46.838;16.838;2023-06-14T20:08:36;5.38;;;4.15;;
64560;SDS011;50960;46.838;16.838;2023-06-14T20:11:02;4.00;;;3.70;;
64560;SDS011;50960;46.838;16.838;2023-06-14T20:13:29;4.50;;;4.10;;
64560;SDS011;50960;46.838;16.838;2023-06-14T20:15:55;5.50;;;3.50;;
64560;SDS011;50960;46.838;16.838;2023-06-14T20:18:22;4.20;;;3.80;;
64560;SDS011;50960;46.838;16.838;2023-06-14T20:20:49;5.90;;;3.90;;
64560;SDS011;50960;46.838;16.838;2023-06-14T20:23:16;5.50;;;3.80;;
64560;SDS011;50960;46.838;16.838;2023-06-14T20:25:43;4.40;;;4.00;;
64560;SDS011;50960;46.838;16.838;2023-06-14T20:28:09;4.30;;;3.90;;
64560;SDS011;50960;46.838;16.838;2023-06-14T20:30:36;5.35;;;3.88;;
64560;SDS011;50960;46.838;16.838;2023-06-14T20:33:02;5.53;;;4.30;;
64560;SDS011;50960;46.838;16.838;2023-06-14T20:35:28;5.93;;;4.90;;
64560;SDS011;50960;46.838;16.838;2023-06-14T20:37:55;6.30;;;4.93;;
64560;SDS011;50960;46.838;16.838;2023-06-14T20:40:21;4.53;;;3.95;;
64560;SDS011;50960;46.838;16.838;2023-06-14T20:42:49;5.80;;;4.05;;
64560;SDS011;50960;46.838;16.838;2023-06-14T20:45:16;4.47;;;4.07;;
64560;SDS011;50960;46.838;16.838;2023-06-14T20:47:43;5.70;;;4.00;;
64560;SDS011;50960;46.838;16.838;2023-06-14T20:50:09;7.00;;;4.18;;
64560;SDS011;50960;46.838;16.838;2023-06-14T20:52:40;4.35;;;3.75;;
64560;SDS011;50960;46.838;16.838;2023-06-14T20:55:07;4.53;;;3.90;;
64560;SDS011;50960;46.838;16.838;2023-06-14T20:57:34;6.03;;;3.90;;
64560;SDS011;50960;46.838;16.838;2023-06-14T21:00:02;5.78;;;5.20;;
64560;SDS011;50960;46.838;16.838;2023-06-14T21:02:36;6.28;;;4.30;;
64560;SDS011;50960;46.838;16.838;2023-06-14T21:05:03;4.07;;;3.78;;
64560;SDS011;50960;46.838;16.838;2023-06-14T21:07:31;5.50;;;3.97;;
64560;SDS011;50960;46.838;16.838;2023-06-14T21:09:58;4.85;;;3.83;;
64560;SDS011;50960;46.838;16.838;2023-06-14T21:12:24;4.75;;;4.15;;
64560;SDS011;50960;46.838;16.838;2023-06-14T21:14:51;5.03;;;4.18;;
64560;SDS011;50960;46.838;16.838;2023-06-14T21:17:17;5.95;;;3.85;;
64560;SDS011;50960;46.838;16.838;2023-06-14T21:19:44;4.45;;;4.05;;
64560;SDS011;50960;46.838;16.838;2023-06-14T21:22:10;4.80;;;4.40;;
64560;SDS011;50960;46.838;16.838;2023-06-14T21:24:36;4.95;;;4.32;;
64560;SDS011;50960;46.838;16.838;2023-06-14T21:27:03;5.25;;;4.38;;
64560;SDS011;50960;46.838;16.838;2023-06-14T21:29:30;5.40;;;3.70;;
64560;SDS011;50960;46.838;16.838;2023-06-14T21:31:56;6.43;;;4.43;;
64560;SDS011;50960;46.838;16.838;2023-06-14T21:34:22;5.15;;;4.32;;
64560;SDS011;50960;46.838;16.838;2023-06-14T21:36:48;5.60;;;4.10;;
64560;SDS011;50960;46.838;16.838;2023-06-14T21:39:18;4.93;;;4.53;;
64560;SDS011;50960;46.838;16.838;2023-06-14T21:41:45;4.40;;;4.10;;
64560;SDS011;50960;46.838;16.838;2023-06-14T21:44:11;4.40;;;4.00;;
64560;SDS011;50960;46.838;16.838;2023-06-14T21:46:38;5.05;;;4.55;;
64560;SDS011;50960;46.838;16.838;2023-06-14T21:49:04;4.35;;;3.90;;
64560;SDS011;50960;46.838;16.838;2023-06-14T21:51:30;5.15;;;4.20;;
64560;SDS011;50960;46.838;16.838;2023-06-14T21:53:56;4.45;;;4.05;;
64560;SDS011;50960;46.838;16.838;2023-06-14T21:56:23;4.70;;;4.30;;
64560;SDS011;50960;46.838;16.838;2023-06-14T21:58:49;4.75;;;4.28;;
64560;SDS011;50960;46.838;16.838;2023-06-14T22:01:16;6.68;;;4.20;;
64560;SDS011;50960;46.838;16.838;2023-06-14T22:03:42;5.22;;;4.43;;
64560;SDS011;50960;46.838;16.838;2023-06-14T22:06:08;4.57;;;4.18;;
64560;SDS011;50960;46.838;16.838;2023-06-14T22:08:35;5.40;;;4.30;;
64560;SDS011;50960;46.838;16.838;2023-06-14T22:11:02;5.00;;;4.32;;
64560;SDS011;50960;46.838;16.838;2023-06-14T22:13:37;4.55;;;4.15;;
64560;SDS011;50960;46.838;16.838;2023-06-14T22:16:03;4.93;;;4.40;;
64560;SDS011;50960;46.838;16.838;2023-06-14T22:18:33;5.38;;;4.03;;
64560;SDS011;50960;46.838;16.838;2023-06-14T22:21:00;5.70;;;4.28;;
64560;SDS011;50960;46.838;16.838;2023-06-14T22:23:27;6.47;;;4.40;;
64560;SDS011;50960;46.838;16.838;2023-06-14T22:26:02;6.32;;;4.15;;
64560;SDS011;50960;46.838;16.838;2023-06-14T22:28:29;4.20;;;3.90;;
64560;SDS011;50960;46.838;16.838;2023-06-14T22:31:04;4.32;;;3.88;;
64560;SDS011;50960;46.838;16.838;2023-06-14T22:33:36;4.60;;;4.20;;
64560;SDS011;50960;46.838;16.838;2023-06-14T22:36:11;5.03;;;4.40;;
64560;SDS011;50960;46.838;16.838;2023-06-14T22:38:41;4.55;;;4.10;;
64560;SDS011;50960;46.838;16.838;2023-06-14T22:41:09;4.72;;;4.18;;
64560;SDS011;50960;46.838;16.838;2023-06-14T22:43:39;4.63;;;4.22;;
64560;SDS011;50960;46.838;16.838;2023-06-14T22:46:09;4.40;;;4.00;;
64560;SDS011;50960;46.838;16.838;2023-06-14T22:48:44;4.70;;;4.30;;
64560;SDS011;50960;46.838;16.838;2023-06-14T22:51:12;4.97;;;4.45;;
64560;SDS011;50960;46.838;16.838;2023-06-14T22:53:42;4.72;;;4.22;;
64560;SDS011;50960;46.838;16.838;2023-06-14T22:56:10;4.82;;;4.35;;
64560;SDS011;50960;46.838;16.838;2023-06-14T22:58:38;6.32;;;4.30;;
64560;SDS011;50960;46.838;16.838;2023-06-14T23:01:06;4.50;;;4.10;;
64560;SDS011;50960;46.838;16.838;2023-06-14T23:03:34;5.97;;;4.30;;
64560;SDS011;50960;46.838;16.838;2023-06-14T23:06:04;4.78;;;4.30;;
64560;SDS011;50960;46.838;16.838;2023-06-14T23:08:33;4.53;;;4.00;;
